Historyczne dane pomiarowe

Dodano dane terminowe – wersja testowa.

Dane z okresu 1951-2019

Wersja bazy: 1.34 [2019-03-16, lista zmian], aktualizacja planowana na 2019-04-15

Dane meteo z obszaru Polski uzyskane na podstawie danych udostępnionych przez Instytut Meteorologii i Gospodarki Wodnej – Państwowy Instytut Badawczy.

 

Wybierz Datę:    

       

TemperaturaWilgotnośćWiatrCiśnienieOpadyŚniegCzas trwania zjawisk
 Stacja t tx tn tng RH VA  wxwx mslp ppp RRR   cm mm wxwxwxwxwxwxwx
1987-08-14 16.1 22.0 11.6 7.5-- 7.3 2.3---- 0.0------------
1987-08-13 12.5 17.0 7.6 5.6-- 5.7 2.7---- 0.0------------
1987-08-12 12.7 17.8 8.8 7.3-- 6.3 3.0---- 0.0------------
1987-08-11 14.0 18.0 11.8 10.8-- 5.3 3.7---- 0.0------------
1987-08-10 16.0 19.5 14.0 11.8-- 8.0 1.7---- 4.0------------
1987-08-09 15.9 23.8 9.8 5.6-- 6.3 2.0---- 0.0------------
1987-08-08 14.9 18.9 11.8 10.0-- 6.0 1.7---- 0.0------------
1987-08-07 13.4 19.7 7.1 5.1-- 4.3 2.7---- 0.4------------
1987-08-06 12.5 16.0 10.0 9.8-- 6.3 3.0---- 3.7------------
1987-08-05 14.0 18.3 10.6 8.5-- 6.7 2.0---- 0.0------------
1987-08-04 16.4 21.3 11.3 7.5-- 8.0 2.7---- 0.0------------
1987-08-03 14.5 19.0 11.0 8.2-- 5.7 2.7---- 0.0------------
1987-08-02 15.4 25.9 14.0 14.0-- 5.0 3.0---- 0.5------------
1987-08-01 16.2 25.9 10.8 9.5-- 7.3 1.7---- 4.3------------
1987-07-31 17.9 22.8 12.8 10.0-- 6.0 2.7---- 7.1------------
1987-07-30 17.0 23.8 10.3 7.1-- 5.3 1.7---- 0.0------------
1987-07-29 14.0 18.0 10.0 8.5-- 7.3 1.7---- 0.0------------
1987-07-28 13.8 16.8 11.8 8.5-- 8.0 3.0---- 5.0------------
1987-07-27 13.6 17.6 9.3 8.8-- 5.7 3.0---- 0.0------------
1987-07-26 15.9 22.1 11.8 13.5-- 8.0 2.3---- 9.7------------
1987-07-25 22.2 25.4 17.6 16.0-- 4.7 2.0---- 0.0------------
1987-07-24 22.7 28.1 18.0 16.0-- 6.0 2.3---- 7.2------------
1987-07-23 22.0 28.4 15.6 12.2-- 2.7 0.7---- 0.0------------
1987-07-22 21.1 25.9 16.3 13.5-- 5.3 2.3---- 0.0------------
1987-07-21 20.5 26.9 13.8 11.0-- 2.7 1.3---- 0.0------------
1987-07-20 23.2 27.9 19.3 17.4-- 5.0 2.3---- 0.0------------
1987-07-19 23.0 30.5 18.6 17.0-- 6.3 2.3---- 0.0------------
1987-07-18 23.2 30.5 16.3 14.5-- 2.3 1.3---- 0.0------------
1987-07-17 20.3 29.5 15.3 12.0-- 6.7 2.3---- 9.2------------
1987-07-16 19.1 26.9 9.0 5.6-- 2.7 1.7---- 0.0------------
1987-07-15 17.5 23.3 7.4 4.3-- 2.3 1.3---- 0.0------------
1987-07-14 16.7 21.3 11.3 8.0-- 1.3 2.0---- 0.0------------
1987-07-13 19.2 25.2 15.8 11.5-- 6.3 1.7---- 0.0------------
1987-07-12 21.5 28.1 14.3 11.5-- 4.0 4.0---- 0.9------------
1987-07-11 17.1 23.0 9.8 5.6-- 3.3 2.7---- 0.0------------
1987-07-10 16.2 18.9 12.3 11.5-- 4.0 2.7---- 0.0------------
1987-07-09 20.2 26.4 16.3 13.5-- 5.3 2.7---- 4.9------------
1987-07-08 21.9 28.8 12.8 8.5-- 0.0 2.3---- 0.0------------
1987-07-07 18.8 25.4 7.8 5.3-- 0.3 1.3---- 0.0------------
1987-07-06 16.2 21.8 7.8 4.6-- 1.0 2.0---- 0.0------------
1987-07-05 15.6 20.9 11.8 9.2-- 7.0 2.7---- 2.0------------
1987-07-04 17.9 23.4 14.8 12.0-- 6.3 2.0---- 0.0------------
1987-07-03 19.4 22.3 16.3 12.2-- 8.0 1.7---- 0.0------------
1987-07-02 21.7 27.4 12.8 16.5-- 6.3 2.3---- 0.0------------
1987-07-01 25.8 31.8 20.0 14.5-- 0.0 1.0---- 0.0------------
1987-06-30 23.2 29.0 14.8 13.0-- 3.0 0.7---- 0.0------------
1987-06-29 20.2 25.4 13.8 10.2-- 2.3 2.0---- 0.0------------
1987-06-28 19.7 25.1 14.0 11.5-- 5.7 3.0---- 0.0------------
1987-06-27 20.0 24.6 13.8 8.5-- 5.7 2.7---- 0.0------------
1987-06-26 16.7 24.0 7.8 3.6-- 1.7 1.7---- 0.0------------
1987-06-25 15.7 19.5 12.8 9.0-- 5.0 3.7---- 2.4------------
1987-06-24 16.2 21.3 12.0 9.0-- 4.3 1.7---- 0.0------------
1987-06-23 16.1 22.3 11.8 8.5-- 6.3 2.3---- 0.5------------
1987-06-22 16.4 22.6 13.3 11.0-- 6.7 1.7---- 0.0------------
1987-06-21 17.3 24.6 8.8 5.6-- 3.7 2.7---- 0.5------------
1987-06-20 15.5 22.3 6.1 3.3-- 2.7 1.7---- 0.0------------
1987-06-19 13.0 17.8 8.0 5.6-- 5.3 2.0---- 0.7------------
1987-06-18 11.9 18.5 5.9 2.6-- 3.7 2.7---- 3.1------------
1987-06-17 12.5 17.8 10.3 8.5-- 5.7 2.0---- 0.8------------
1987-06-16 19.8 27.4 12.8 13.0-- 4.7 3.7---- 0.5------------
2845.5 ms

 

Źródłem pochodzenia danych jest Instytut Meteorologii i Gospodarki Wodnej – Państwowy Instytut Badawczy. Dane Instytutu Meteorologii i Gospodarki Wodnej – Państwowego Instytutu Badawczego zostały przetworzone.

Dane źródłowe można odnaleźć na stronie https://dane.imgw.pl